Wolfpit, Kentucky
Current Conditions -  °F | °C
As of 6:15 AM on Saturday 25 Oct 2014 (Local Time) from KPBX Reporting Station
Clear Clear  
Wind Chill: 41°   Ceiling: Unl
Heat Index: 41°   Visibility: 10mi
Dew Point: 40°   Wind: 3mph
Humidity: 96%   Direction: 170°S
Pressure: 30.07"   Gusts: NA
Location:  37.3089°N, 82.3418°W
Report Text: KPBX 251015Z AUTO 17003KT 10SM CLR 05/04 A3007 RMK AO2 T00480042
Loading
Personal Weather Stations






























Interactive Weather Map
Tropical Storm Tracking
New forecast layout! Learn more

10-Day Weather Forecast

Advertisements
Track Severe Weather on mobile